sensor_id;sensor_type;location;lat;lon;timestamp;temperature;humidity
11214;DHT22;5664;48.606;13.456;2024-03-02T00:00:49;18.60;80.80
11214;DHT22;5664;48.606;13.456;2024-03-02T00:03:14;18.50;80.80
11214;DHT22;5664;48.606;13.456;2024-03-02T00:05:40;18.50;80.80
11214;DHT22;5664;48.606;13.456;2024-03-02T00:08:05;18.50;80.90
11214;DHT22;5664;48.606;13.456;2024-03-02T00:10:38;18.40;80.90
11214;DHT22;5664;48.606;13.456;2024-03-02T00:13:05;18.40;80.90
11214;DHT22;5664;48.606;13.456;2024-03-02T00:17:57;18.40;81.00
11214;DHT22;5664;48.606;13.456;2024-03-02T00:20:24;18.30;81.00
11214;DHT22;5664;48.606;13.456;2024-03-02T00:22:49;18.30;81.00
11214;DHT22;5664;48.606;13.456;2024-03-02T00:25:16;18.30;81.00
11214;DHT22;5664;48.606;13.456;2024-03-02T00:27:41;18.30;81.10
11214;DHT22;5664;48.606;13.456;2024-03-02T00:32:58;18.30;81.10
11214;DHT22;5664;48.606;13.456;2024-03-02T00:35:24;18.30;81.20
11214;DHT22;5664;48.606;13.456;2024-03-02T00:37:49;18.20;81.20
11214;DHT22;5664;48.606;13.456;2024-03-02T00:40:17;18.20;81.20
11214;DHT22;5664;48.606;13.456;2024-03-02T00:42:44;18.20;81.30
11214;DHT22;5664;48.606;13.456;2024-03-02T00:45:09;18.10;81.30
11214;DHT22;5664;48.606;13.456;2024-03-02T00:47:38;18.10;81.30
11214;DHT22;5664;48.606;13.456;2024-03-02T00:50:05;18.10;81.60
11214;DHT22;5664;48.606;13.456;2024-03-02T00:52:30;18.10;81.30
11214;DHT22;5664;48.606;13.456;2024-03-02T00:54:58;18.10;82.20
11214;DHT22;5664;48.606;13.456;2024-03-02T00:57:24;18.10;81.40
11214;DHT22;5664;48.606;13.456;2024-03-02T00:59:51;18.10;81.40
11214;DHT22;5664;48.606;13.456;2024-03-02T01:02:17;18.00;81.30
11214;DHT22;5664;48.606;13.456;2024-03-02T01:04:42;18.00;81.30
11214;DHT22;5664;48.606;13.456;2024-03-02T01:07:08;18.00;81.40
11214;DHT22;5664;48.606;13.456;2024-03-02T01:09:33;18.00;81.40
11214;DHT22;5664;48.606;13.456;2024-03-02T01:11:58;18.00;81.40
11214;DHT22;5664;48.606;13.456;2024-03-02T01:14:24;17.90;81.40
11214;DHT22;5664;48.606;13.456;2024-03-02T01:16:52;17.90;81.50
11214;DHT22;5664;48.606;13.456;2024-03-02T01:19:18;17.90;81.50
11214;DHT22;5664;48.606;13.456;2024-03-02T01:21:43;17.90;81.50
11214;DHT22;5664;48.606;13.456;2024-03-02T01:24:09;17.90;81.60
11214;DHT22;5664;48.606;13.456;2024-03-02T01:26:34;17.80;81.50
11214;DHT22;5664;48.606;13.456;2024-03-02T01:29:00;17.90;81.60
11214;DHT22;5664;48.606;13.456;2024-03-02T01:31:25;17.80;81.60
11214;DHT22;5664;48.606;13.456;2024-03-02T01:33:51;17.80;81.60
11214;DHT22;5664;48.606;13.456;2024-03-02T01:36:16;17.80;81.60
11214;DHT22;5664;48.606;13.456;2024-03-02T01:38:41;17.60;81.60
11214;DHT22;5664;48.606;13.456;2024-03-02T01:41:07;17.80;81.70
11214;DHT22;5664;48.606;13.456;2024-03-02T01:43:32;17.80;81.70
11214;DHT22;5664;48.606;13.456;2024-03-02T01:45:58;17.80;81.80
11214;DHT22;5664;48.606;13.456;2024-03-02T01:48:23;17.70;81.70
11214;DHT22;5664;48.606;13.456;2024-03-02T01:50:49;17.70;81.80
11214;DHT22;5664;48.606;13.456;2024-03-02T01:53:14;17.90;81.90
11214;DHT22;5664;48.606;13.456;2024-03-02T01:55:40;17.70;81.80
11214;DHT22;5664;48.606;13.456;2024-03-02T01:58:08;17.70;81.80
11214;DHT22;5664;48.606;13.456;2024-03-02T02:00:34;17.60;81.80
11214;DHT22;5664;48.606;13.456;2024-03-02T02:02:59;17.60;81.80
11214;DHT22;5664;48.606;13.456;2024-03-02T02:05:25;17.60;81.90
11214;DHT22;5664;48.606;13.456;2024-03-02T02:07:50;17.60;81.90
11214;DHT22;5664;48.606;13.456;2024-03-02T02:10:16;17.60;82.00
11214;DHT22;5664;48.606;13.456;2024-03-02T02:12:41;17.60;82.10
11214;DHT22;5664;48.606;13.456;2024-03-02T02:15:21;17.60;82.00
11214;DHT22;5664;48.606;13.456;2024-03-02T02:17:46;17.50;82.00
11214;DHT22;5664;48.606;13.456;2024-03-02T02:20:12;17.50;82.00
11214;DHT22;5664;48.606;13.456;2024-03-02T02:22:37;17.50;82.00
11214;DHT22;5664;48.606;13.456;2024-03-02T02:25:03;17.50;82.00
11214;DHT22;5664;48.606;13.456;2024-03-02T02:27:29;17.50;82.10
11214;DHT22;5664;48.606;13.456;2024-03-02T02:29:55;17.50;82.10
11214;DHT22;5664;48.606;13.456;2024-03-02T02:32:21;17.50;82.10
11214;DHT22;5664;48.606;13.456;2024-03-02T02:34:46;17.40;82.00
11214;DHT22;5664;48.606;13.456;2024-03-02T02:37:12;17.40;82.10
11214;DHT22;5664;48.606;13.456;2024-03-02T02:39:37;17.30;82.00
11214;DHT22;5664;48.606;13.456;2024-03-02T02:42:03;17.40;82.10
11214;DHT22;5664;48.606;13.456;2024-03-02T02:44:29;17.40;82.10
11214;DHT22;5664;48.606;13.456;2024-03-02T02:46:55;17.30;82.10
11214;DHT22;5664;48.606;13.456;2024-03-02T02:49:20;17.30;82.10
11214;DHT22;5664;48.606;13.456;2024-03-02T02:51:45;17.30;82.20
11214;DHT22;5664;48.606;13.456;2024-03-02T02:54:11;17.30;82.40
11214;DHT22;5664;48.606;13.456;2024-03-02T02:56:36;17.30;82.20
11214;DHT22;5664;48.606;13.456;2024-03-02T02:59:02;17.30;82.20
11214;DHT22;5664;48.606;13.456;2024-03-02T03:01:27;17.30;82.20
11214;DHT22;5664;48.606;13.456;2024-03-02T03:03:53;17.30;82.30
11214;DHT22;5664;48.606;13.456;2024-03-02T03:06:19;17.20;82.20
11214;DHT22;5664;48.606;13.456;2024-03-02T03:08:44;17.20;82.30
11214;DHT22;5664;48.606;13.456;2024-03-02T03:11:09;17.20;82.30
11214;DHT22;5664;48.606;13.456;2024-03-02T03:13:35;17.20;82.30
11214;DHT22;5664;48.606;13.456;2024-03-02T03:16:00;17.20;82.30
11214;DHT22;5664;48.606;13.456;2024-03-02T03:18:26;17.20;82.30
11214;DHT22;5664;48.606;13.456;2024-03-02T03:20:51;17.20;82.40
11214;DHT22;5664;48.606;13.456;2024-03-02T03:23:17;17.10;82.40
11214;DHT22;5664;48.606;13.456;2024-03-02T03:25:42;17.10;82.40
11214;DHT22;5664;48.606;13.456;2024-03-02T03:28:08;17.10;82.40
11214;DHT22;5664;48.606;13.456;2024-03-02T03:30:36;17.10;82.50
11214;DHT22;5664;48.606;13.456;2024-03-02T03:33:02;17.10;82.40
11214;DHT22;5664;48.606;13.456;2024-03-02T03:35:27;17.10;82.50
11214;DHT22;5664;48.606;13.456;2024-03-02T03:37:53;17.10;82.50
11214;DHT22;5664;48.606;13.456;2024-03-02T03:40:18;17.00;82.40
11214;DHT22;5664;48.606;13.456;2024-03-02T03:42:44;17.00;82.40
11214;DHT22;5664;48.606;13.456;2024-03-02T03:45:10;17.00;82.50
11214;DHT22;5664;48.606;13.456;2024-03-02T03:47:35;17.00;82.40
11214;DHT22;5664;48.606;13.456;2024-03-02T03:50:01;17.00;82.50
11214;DHT22;5664;48.606;13.456;2024-03-02T03:52:29;16.90;82.50
11214;DHT22;5664;48.606;13.456;2024-03-02T03:54:55;16.90;82.60
11214;DHT22;5664;48.606;13.456;2024-03-02T03:57:20;16.90;82.50
11214;DHT22;5664;48.606;13.456;2024-03-02T03:59:46;16.90;82.50
11214;DHT22;5664;48.606;13.456;2024-03-02T04:02:12;16.90;82.50
11214;DHT22;5664;48.606;13.456;2024-03-02T04:04:38;16.90;82.60
11214;DHT22;5664;48.606;13.456;2024-03-02T04:07:03;16.90;82.60
11214;DHT22;5664;48.606;13.456;2024-03-02T04:09:29;16.80;82.60
11214;DHT22;5664;48.606;13.456;2024-03-02T04:11:55;17.00;82.70
11214;DHT22;5664;48.606;13.456;2024-03-02T04:14:20;16.80;82.70
11214;DHT22;5664;48.606;13.456;2024-03-02T04:16:46;16.80;82.70
11214;DHT22;5664;48.606;13.456;2024-03-02T04:19:11;16.80;82.70
11214;DHT22;5664;48.606;13.456;2024-03-02T04:21:36;17.70;83.40
11214;DHT22;5664;48.606;13.456;2024-03-02T04:24:05;16.80;82.80
11214;DHT22;5664;48.606;13.456;2024-03-02T04:26:30;16.80;82.90
11214;DHT22;5664;48.606;13.456;2024-03-02T04:28:59;16.80;82.80
11214;DHT22;5664;48.606;13.456;2024-03-02T04:31:24;16.70;82.10
11214;DHT22;5664;48.606;13.456;2024-03-02T04:33:49;16.70;82.80
11214;DHT22;5664;48.606;13.456;2024-03-02T04:36:15;16.70;82.80
11214;DHT22;5664;48.606;13.456;2024-03-02T04:38:40;16.60;82.70
11214;DHT22;5664;48.606;13.456;2024-03-02T04:41:06;16.70;82.80
11214;DHT22;5664;48.606;13.456;2024-03-02T04:43:32;16.70;82.80
11214;DHT22;5664;48.606;13.456;2024-03-02T04:45:58;16.60;82.80
11214;DHT22;5664;48.606;13.456;2024-03-02T04:48:23;16.60;82.80
11214;DHT22;5664;48.606;13.456;2024-03-02T04:50:49;16.70;82.90
11214;DHT22;5664;48.606;13.456;2024-03-02T04:53:14;16.60;82.80
11214;DHT22;5664;48.606;13.456;2024-03-02T04:55:40;16.60;82.80
11214;DHT22;5664;48.606;13.456;2024-03-02T04:58:05;16.60;82.80
11214;DHT22;5664;48.606;13.456;2024-03-02T05:00:32;16.60;82.80
11214;DHT22;5664;48.606;13.456;2024-03-02T05:02:57;16.60;82.90
11214;DHT22;5664;48.606;13.456;2024-03-02T05:05:23;16.60;82.90
11214;DHT22;5664;48.606;13.456;2024-03-02T05:07:48;16.80;83.10
11214;DHT22;5664;48.606;13.456;2024-03-02T05:10:14;16.50;82.90
11214;DHT22;5664;48.606;13.456;2024-03-02T05:12:39;16.50;83.10
11214;DHT22;5664;48.606;13.456;2024-03-02T05:15:07;16.50;82.90
11214;DHT22;5664;48.606;13.456;2024-03-02T05:17:33;16.50;83.00
11214;DHT22;5664;48.606;13.456;2024-03-02T05:19:58;16.50;83.00
11214;DHT22;5664;48.606;13.456;2024-03-02T05:22:24;16.50;83.00
11214;DHT22;5664;48.606;13.456;2024-03-02T05:24:49;16.50;83.00
11214;DHT22;5664;48.606;13.456;2024-03-02T05:27:15;16.50;83.10
11214;DHT22;5664;48.606;13.456;2024-03-02T05:29:41;16.40;83.10
11214;DHT22;5664;48.606;13.456;2024-03-02T05:32:06;16.40;83.00
11214;DHT22;5664;48.606;13.456;2024-03-02T05:34:32;16.40;83.00
11214;DHT22;5664;48.606;13.456;2024-03-02T05:37:01;16.40;83.00
11214;DHT22;5664;48.606;13.456;2024-03-02T05:39:26;16.40;83.10
11214;DHT22;5664;48.606;13.456;2024-03-02T05:41:52;16.40;83.10
11214;DHT22;5664;48.606;13.456;2024-03-02T05:44:17;16.40;83.10
11214;DHT22;5664;48.606;13.456;2024-03-02T05:46:43;16.40;83.10
11214;DHT22;5664;48.606;13.456;2024-03-02T05:49:09;16.40;83.10
11214;DHT22;5664;48.606;13.456;2024-03-02T05:51:35;16.40;83.20
11214;DHT22;5664;48.606;13.456;2024-03-02T05:54:00;16.40;83.20
11214;DHT22;5664;48.606;13.456;2024-03-02T05:56:26;16.90;83.50
11214;DHT22;5664;48.606;13.456;2024-03-02T05:58:51;16.30;82.50
11214;DHT22;5664;48.606;13.456;2024-03-02T06:01:35;16.30;83.20
11214;DHT22;5664;48.606;13.456;2024-03-02T06:04:01;16.30;83.20
11214;DHT22;5664;48.606;13.456;2024-03-02T06:06:26;16.30;83.20
11214;DHT22;5664;48.606;13.456;2024-03-02T06:08:52;17.00;83.70
11214;DHT22;5664;48.606;13.456;2024-03-02T06:11:19;16.40;83.30
11214;DHT22;5664;48.606;13.456;2024-03-02T06:13:44;16.30;83.20
11214;DHT22;5664;48.606;13.456;2024-03-02T06:16:10;16.30;83.20
11214;DHT22;5664;48.606;13.456;2024-03-02T06:18:35;17.10;83.80
11214;DHT22;5664;48.606;13.456;2024-03-02T06:21:01;16.20;82.50
11214;DHT22;5664;48.606;13.456;2024-03-02T06:23:27;16.20;83.30
11214;DHT22;5664;48.606;13.456;2024-03-02T06:25:55;16.20;83.30
11214;DHT22;5664;48.606;13.456;2024-03-02T06:28:20;16.20;83.30
11214;DHT22;5664;48.606;13.456;2024-03-02T06:30:46;16.20;83.30
11214;DHT22;5664;48.606;13.456;2024-03-02T06:33:11;16.40;83.40
11214;DHT22;5664;48.606;13.456;2024-03-02T06:35:37;16.40;83.40
11214;DHT22;5664;48.606;13.456;2024-03-02T06:38:03;16.20;82.70
11214;DHT22;5664;48.606;13.456;2024-03-02T06:40:28;16.20;83.30
11214;DHT22;5664;48.606;13.456;2024-03-02T06:42:54;16.20;83.30
11214;DHT22;5664;48.606;13.456;2024-03-02T06:45:19;17.60;84.30
11214;DHT22;5664;48.606;13.456;2024-03-02T06:47:45;16.30;83.40
11214;DHT22;5664;48.606;13.456;2024-03-02T06:50:10;16.30;83.60
11214;DHT22;5664;48.606;13.456;2024-03-02T06:52:36;16.20;83.40
11214;DHT22;5664;48.606;13.456;2024-03-02T06:55:02;16.20;83.40
11214;DHT22;5664;48.606;13.456;2024-03-02T06:57:27;16.10;83.30
11214;DHT22;5664;48.606;13.456;2024-03-02T06:59:53;16.10;83.30
11214;DHT22;5664;48.606;13.456;2024-03-02T07:02:22;16.10;83.70
11214;DHT22;5664;48.606;13.456;2024-03-02T07:04:48;16.10;82.80
11214;DHT22;5664;48.606;13.456;2024-03-02T07:07:14;16.10;83.50
11214;DHT22;5664;48.606;13.456;2024-03-02T07:09:39;16.10;83.40
11214;DHT22;5664;48.606;13.456;2024-03-02T07:12:05;16.30;83.60
11214;DHT22;5664;48.606;13.456;2024-03-02T07:14:30;16.10;83.50
11214;DHT22;5664;48.606;13.456;2024-03-02T07:17:14;16.20;83.60
11214;DHT22;5664;48.606;13.456;2024-03-02T07:19:42;16.10;83.50
11214;DHT22;5664;48.606;13.456;2024-03-02T07:22:09;16.10;83.50
11214;DHT22;5664;48.606;13.456;2024-03-02T07:24:41;16.30;83.60
11214;DHT22;5664;48.606;13.456;2024-03-02T07:27:07;16.10;83.50
11214;DHT22;5664;48.606;13.456;2024-03-02T07:29:32;16.00;82.80
11214;DHT22;5664;48.606;13.456;2024-03-02T07:31:58;16.10;83.50
11214;DHT22;5664;48.606;13.456;2024-03-02T07:34:23;16.20;83.60
11214;DHT22;5664;48.606;13.456;2024-03-02T07:36:49;16.40;83.70
11214;DHT22;5664;48.606;13.456;2024-03-02T07:39:14;16.20;83.60
11214;DHT22;5664;48.606;13.456;2024-03-02T07:41:39;16.20;83.60
11214;DHT22;5664;48.606;13.456;2024-03-02T07:44:05;16.20;83.60
11214;DHT22;5664;48.606;13.456;2024-03-02T07:46:30;16.40;83.70
11214;DHT22;5664;48.606;13.456;2024-03-02T07:48:56;16.20;83.60
11214;DHT22;5664;48.606;13.456;2024-03-02T07:51:21;16.20;83.60
11214;DHT22;5664;48.606;13.456;2024-03-02T07:53:47;16.20;83.80
11214;DHT22;5664;48.606;13.456;2024-03-02T07:56:12;16.30;84.10
11214;DHT22;5664;48.606;13.456;2024-03-02T07:58:38;16.30;85.00
11214;DHT22;5664;48.606;13.456;2024-03-02T08:01:03;16.40;85.80
11214;DHT22;5664;48.606;13.456;2024-03-02T08:03:29;16.90;86.60
11214;DHT22;5664;48.606;13.456;2024-03-02T08:05:54;16.50;86.50
11214;DHT22;5664;48.606;13.456;2024-03-02T08:08:20;17.30;86.80
11214;DHT22;5664;48.606;13.456;2024-03-02T08:10:45;16.70;86.40
11214;DHT22;5664;48.606;13.456;2024-03-02T08:13:11;16.80;86.30
11214;DHT22;5664;48.606;13.456;2024-03-02T08:15:36;16.80;86.00
11214;DHT22;5664;48.606;13.456;2024-03-02T08:18:01;16.90;85.80
11214;DHT22;5664;48.606;13.456;2024-03-02T08:20:27;16.90;85.60
11214;DHT22;5664;48.606;13.456;2024-03-02T08:22:52;17.00;85.30
11214;DHT22;5664;48.606;13.456;2024-03-02T08:25:20;17.10;85.20
11214;DHT22;5664;48.606;13.456;2024-03-02T08:27:46;17.20;85.00
11214;DHT22;5664;48.606;13.456;2024-03-02T08:30:11;17.20;84.80
11214;DHT22;5664;48.606;13.456;2024-03-02T08:32:37;17.20;84.60
11214;DHT22;5664;48.606;13.456;2024-03-02T08:35:03;17.20;84.60
11214;DHT22;5664;48.606;13.456;2024-03-02T08:37:28;17.30;84.70
11214;DHT22;5664;48.606;13.456;2024-03-02T08:39:54;17.20;76.60
11214;DHT22;5664;48.606;13.456;2024-03-02T08:42:19;16.90;69.00
11214;DHT22;5664;48.606;13.456;2024-03-02T08:44:45;17.20;70.90
11214;DHT22;5664;48.606;13.456;2024-03-02T08:47:10;16.60;72.50
11214;DHT22;5664;48.606;13.456;2024-03-02T08:49:36;17.50;75.00
11214;DHT22;5664;48.606;13.456;2024-03-02T08:52:01;16.60;76.00
11214;DHT22;5664;48.606;13.456;2024-03-02T08:54:27;17.10;77.50
11214;DHT22;5664;48.606;13.456;2024-03-02T08:56:53;16.60;78.10
11214;DHT22;5664;48.606;13.456;2024-03-02T08:59:18;16.70;78.90
11214;DHT22;5664;48.606;13.456;2024-03-02T09:01:44;16.70;79.40
11214;DHT22;5664;48.606;13.456;2024-03-02T09:04:11;16.70;80.00
11214;DHT22;5664;48.606;13.456;2024-03-02T09:06:36;16.80;80.50
11214;DHT22;5664;48.606;13.456;2024-03-02T09:09:02;16.90;81.20
11214;DHT22;5664;48.606;13.456;2024-03-02T09:11:28;17.00;81.70
11214;DHT22;5664;48.606;13.456;2024-03-02T09:13:53;17.10;82.10
11214;DHT22;5664;48.606;13.456;2024-03-02T09:16:21;17.10;82.10
11214;DHT22;5664;48.606;13.456;2024-03-02T09:18:47;17.30;82.10
11214;DHT22;5664;48.606;13.456;2024-03-02T09:21:13;17.30;82.00
11214;DHT22;5664;48.606;13.456;2024-03-02T09:23:40;17.40;81.90
11214;DHT22;5664;48.606;13.456;2024-03-02T09:26:06;17.50;82.00
11214;DHT22;5664;48.606;13.456;2024-03-02T09:28:31;17.50;81.90
11214;DHT22;5664;48.606;13.456;2024-03-02T09:30:57;17.60;81.90
11214;DHT22;5664;48.606;13.456;2024-03-02T09:33:22;17.60;81.70
11214;DHT22;5664;48.606;13.456;2024-03-02T09:35:47;17.60;76.50
11214;DHT22;5664;48.606;13.456;2024-03-02T09:38:14;17.60;74.50
11214;DHT22;5664;48.606;13.456;2024-03-02T09:40:40;17.60;77.80
11214;DHT22;5664;48.606;13.456;2024-03-02T09:43:07;17.60;79.30
11214;DHT22;5664;48.606;13.456;2024-03-02T09:45:32;17.70;80.00
11214;DHT22;5664;48.606;13.456;2024-03-02T09:47:58;17.80;80.20
11214;DHT22;5664;48.606;13.456;2024-03-02T09:50:24;17.90;80.00
11214;DHT22;5664;48.606;13.456;2024-03-02T09:52:50;17.90;79.90
11214;DHT22;5664;48.606;13.456;2024-03-02T09:55:15;18.00;79.70
11214;DHT22;5664;48.606;13.456;2024-03-02T09:57:42;18.20;79.60
11214;DHT22;5664;48.606;13.456;2024-03-02T10:00:08;18.40;79.70
11214;DHT22;5664;48.606;13.456;2024-03-02T10:02:34;18.60;79.60
11214;DHT22;5664;48.606;13.456;2024-03-02T10:04:59;18.80;79.40
11214;DHT22;5664;48.606;13.456;2024-03-02T10:07:25;19.00;79.20
11214;DHT22;5664;48.606;13.456;2024-03-02T10:09:50;19.20;79.10
11214;DHT22;5664;48.606;13.456;2024-03-02T10:12:17;19.40;78.90
11214;DHT22;5664;48.606;13.456;2024-03-02T10:14:43;19.60;78.60
11214;DHT22;5664;48.606;13.456;2024-03-02T10:17:09;19.80;78.20
11214;DHT22;5664;48.606;13.456;2024-03-02T10:19:35;20.00;77.90
11214;DHT22;5664;48.606;13.456;2024-03-02T10:22:02;20.10;77.60
11214;DHT22;5664;48.606;13.456;2024-03-02T10:24:34;20.30;77.40
11214;DHT22;5664;48.606;13.456;2024-03-02T10:27:00;20.40;77.10
11214;DHT22;5664;48.606;13.456;2024-03-02T10:29:28;20.50;76.90
11214;DHT22;5664;48.606;13.456;2024-03-02T10:31:54;20.60;76.70
11214;DHT22;5664;48.606;13.456;2024-03-02T10:34:21;20.80;76.60
11214;DHT22;5664;48.606;13.456;2024-03-02T10:36:47;20.90;76.50
11214;DHT22;5664;48.606;13.456;2024-03-02T10:39:13;21.00;76.40
11214;DHT22;5664;48.606;13.456;2024-03-02T10:41:39;21.10;76.30
11214;DHT22;5664;48.606;13.456;2024-03-02T10:44:06;21.30;76.20
11214;DHT22;5664;48.606;13.456;2024-03-02T10:46:33;21.40;75.90
11214;DHT22;5664;48.606;13.456;2024-03-02T10:48:59;21.60;76.00
11214;DHT22;5664;48.606;13.456;2024-03-02T10:51:28;21.70;75.60
11214;DHT22;5664;48.606;13.456;2024-03-02T10:53:57;21.80;75.30
11214;DHT22;5664;48.606;13.456;2024-03-02T10:56:33;21.90;75.00
11214;DHT22;5664;48.606;13.456;2024-03-02T11:01:34;22.20;74.40
11214;DHT22;5664;48.606;13.456;2024-03-02T11:03:59;22.30;74.10
11214;DHT22;5664;48.606;13.456;2024-03-02T11:06:28;22.40;73.90
11214;DHT22;5664;48.606;13.456;2024-03-02T11:08:54;22.50;73.40
11214;DHT22;5664;48.606;13.456;2024-03-02T11:11:30;22.60;73.20
11214;DHT22;5664;48.606;13.456;2024-03-02T11:13:57;22.70;72.80
11214;DHT22;5664;48.606;13.456;2024-03-02T11:16:36;22.80;72.40
11214;DHT22;5664;48.606;13.456;2024-03-02T11:19:03;22.90;71.70
11214;DHT22;5664;48.606;13.456;2024-03-02T11:21:29;22.90;71.00
11214;DHT22;5664;48.606;13.456;2024-03-02T11:23:54;23.00;70.40
11214;DHT22;5664;48.606;13.456;2024-03-02T11:26:21;23.10;69.90
11214;DHT22;5664;48.606;13.456;2024-03-02T11:28:49;23.10;69.60
11214;DHT22;5664;48.606;13.456;2024-03-02T11:31:15;23.20;69.00
11214;DHT22;5664;48.606;13.456;2024-03-02T11:33:44;23.20;68.60
11214;DHT22;5664;48.606;13.456;2024-03-02T11:36:11;23.30;68.40
11214;DHT22;5664;48.606;13.456;2024-03-02T11:38:37;23.40;68.10
11214;DHT22;5664;48.606;13.456;2024-03-02T11:41:04;23.50;68.00
11214;DHT22;5664;48.606;13.456;2024-03-02T11:43:32;23.60;67.80
11214;DHT22;5664;48.606;13.456;2024-03-02T11:45:59;23.70;67.50
11214;DHT22;5664;48.606;13.456;2024-03-02T11:48:25;23.80;67.20
11214;DHT22;5664;48.606;13.456;2024-03-02T11:50:50;23.80;66.90
11214;DHT22;5664;48.606;13.456;2024-03-02T11:53:16;23.90;67.00
11214;DHT22;5664;48.606;13.456;2024-03-02T11:55:42;24.00;66.90
11214;DHT22;5664;48.606;13.456;2024-03-02T11:58:12;24.10;66.90
11214;DHT22;5664;48.606;13.456;2024-03-02T12:00:37;24.10;67.00
11214;DHT22;5664;48.606;13.456;2024-03-02T12:03:04;24.10;66.90
11214;DHT22;5664;48.606;13.456;2024-03-02T12:05:30;24.10;66.70
11214;DHT22;5664;48.606;13.456;2024-03-02T12:07:58;24.00;66.40
11214;DHT22;5664;48.606;13.456;2024-03-02T12:10:27;24.00;66.00
11214;DHT22;5664;48.606;13.456;2024-03-02T12:12:59;23.90;65.50
11214;DHT22;5664;48.606;13.456;2024-03-02T12:15:25;23.90;65.20
11214;DHT22;5664;48.606;13.456;2024-03-02T12:17:52;23.90;64.70
11214;DHT22;5664;48.606;13.456;2024-03-02T12:20:18;23.90;64.10
11214;DHT22;5664;48.606;13.456;2024-03-02T12:22:43;23.90;63.60
11214;DHT22;5664;48.606;13.456;2024-03-02T12:25:09;23.90;62.90
11214;DHT22;5664;48.606;13.456;2024-03-02T12:27:34;23.90;62.00
11214;DHT22;5664;48.606;13.456;2024-03-02T12:30:01;23.60;53.70
11214;DHT22;5664;48.606;13.456;2024-03-02T12:32:26;23.30;51.30
11214;DHT22;5664;48.606;13.456;2024-03-02T12:34:52;23.10;54.40
11214;DHT22;5664;48.606;13.456;2024-03-02T12:39:53;22.80;51.50
11214;DHT22;5664;48.606;13.456;2024-03-02T12:42:19;22.50;52.10
11214;DHT22;5664;48.606;13.456;2024-03-02T12:44:44;22.20;52.70
11214;DHT22;5664;48.606;13.456;2024-03-02T12:47:10;21.90;53.00
11214;DHT22;5664;48.606;13.456;2024-03-02T12:49:37;21.60;53.70
11214;DHT22;5664;48.606;13.456;2024-03-02T12:52:05;21.30;53.90
11214;DHT22;5664;48.606;13.456;2024-03-02T12:54:30;21.10;54.00
11214;DHT22;5664;48.606;13.456;2024-03-02T12:56:56;20.80;54.30
11214;DHT22;5664;48.606;13.456;2024-03-02T12:59:23;20.60;55.00
11214;DHT22;5664;48.606;13.456;2024-03-02T13:01:54;20.50;55.30
11214;DHT22;5664;48.606;13.456;2024-03-02T13:04:25;20.30;55.40
11214;DHT22;5664;48.606;13.456;2024-03-02T13:06:51;20.20;56.00
11214;DHT22;5664;48.606;13.456;2024-03-02T13:09:17;20.20;57.00
11214;DHT22;5664;48.606;13.456;2024-03-02T13:11:42;20.20;56.30
11214;DHT22;5664;48.606;13.456;2024-03-02T13:14:08;20.10;55.60
11214;DHT22;5664;48.606;13.456;2024-03-02T13:16:38;20.00;56.00
11214;DHT22;5664;48.606;13.456;2024-03-02T13:19:07;19.90;55.90
11214;DHT22;5664;48.606;13.456;2024-03-02T13:21:33;19.90;56.50
11214;DHT22;5664;48.606;13.456;2024-03-02T13:23:58;20.00;56.60
11214;DHT22;5664;48.606;13.456;2024-03-02T13:26:25;20.00;56.50
11214;DHT22;5664;48.606;13.456;2024-03-02T13:28:51;20.00;55.50
11214;DHT22;5664;48.606;13.456;2024-03-02T13:31:16;19.90;56.10
11214;DHT22;5664;48.606;13.456;2024-03-02T13:33:43;19.90;56.50
11214;DHT22;5664;48.606;13.456;2024-03-02T13:36:08;20.00;56.90
11214;DHT22;5664;48.606;13.456;2024-03-02T13:38:35;20.10;55.60
11214;DHT22;5664;48.606;13.456;2024-03-02T13:41:01;20.20;55.40
11214;DHT22;5664;48.606;13.456;2024-03-02T13:43:27;20.20;55.80
11214;DHT22;5664;48.606;13.456;2024-03-02T13:45:52;20.30;55.60
11214;DHT22;5664;48.606;13.456;2024-03-02T13:48:19;20.50;55.90
11214;DHT22;5664;48.606;13.456;2024-03-02T13:50:46;20.80;57.60
11214;DHT22;5664;48.606;13.456;2024-03-02T13:53:11;21.20;58.90
11214;DHT22;5664;48.606;13.456;2024-03-02T13:55:37;21.70;59.20
11214;DHT22;5664;48.606;13.456;2024-03-02T13:58:03;22.20;58.80
11214;DHT22;5664;48.606;13.456;2024-03-02T14:00:28;22.60;58.20
11214;DHT22;5664;48.606;13.456;2024-03-02T14:02:54;22.90;57.70
11214;DHT22;5664;48.606;13.456;2024-03-02T14:05:20;23.30;57.10
11214;DHT22;5664;48.606;13.456;2024-03-02T14:07:45;23.40;56.20
11214;DHT22;5664;48.606;13.456;2024-03-02T14:10:17;23.50;56.20
11214;DHT22;5664;48.606;13.456;2024-03-02T14:12:47;23.60;55.60
11214;DHT22;5664;48.606;13.456;2024-03-02T14:15:12;23.60;55.70
11214;DHT22;5664;48.606;13.456;2024-03-02T14:17:38;23.60;55.70
11214;DHT22;5664;48.606;13.456;2024-03-02T14:20:04;23.70;55.70
11214;DHT22;5664;48.606;13.456;2024-03-02T14:22:31;23.70;55.80
11214;DHT22;5664;48.606;13.456;2024-03-02T14:24:56;23.70;55.70
11214;DHT22;5664;48.606;13.456;2024-03-02T14:27:22;23.80;55.70
11214;DHT22;5664;48.606;13.456;2024-03-02T14:29:47;23.80;55.80
11214;DHT22;5664;48.606;13.456;2024-03-02T14:32:13;23.80;55.80
11214;DHT22;5664;48.606;13.456;2024-03-02T14:34:39;23.80;55.80
11214;DHT22;5664;48.606;13.456;2024-03-02T14:37:04;23.90;55.70
11214;DHT22;5664;48.606;13.456;2024-03-02T14:39:30;23.90;55.60
11214;DHT22;5664;48.606;13.456;2024-03-02T14:42:00;24.00;55.60
11214;DHT22;5664;48.606;13.456;2024-03-02T14:44:25;24.10;55.50
11214;DHT22;5664;48.606;13.456;2024-03-02T14:46:51;24.20;55.50
11214;DHT22;5664;48.606;13.456;2024-03-02T14:49:16;24.20;54.50
11214;DHT22;5664;48.606;13.456;2024-03-02T14:51:43;24.30;55.00
11214;DHT22;5664;48.606;13.456;2024-03-02T14:54:08;24.30;55.00
11214;DHT22;5664;48.606;13.456;2024-03-02T14:56:34;24.30;55.20
11214;DHT22;5664;48.606;13.456;2024-03-02T14:58:59;24.40;55.40
11214;DHT22;5664;48.606;13.456;2024-03-02T15:01:25;24.40;54.60
11214;DHT22;5664;48.606;13.456;2024-03-02T15:03:51;24.30;54.70
11214;DHT22;5664;48.606;13.456;2024-03-02T15:06:16;24.30;55.20
11214;DHT22;5664;48.606;13.456;2024-03-02T15:08:42;24.30;55.50
11214;DHT22;5664;48.606;13.456;2024-03-02T15:11:08;24.40;55.80
11214;DHT22;5664;48.606;13.456;2024-03-02T15:13:34;24.40;56.00
11214;DHT22;5664;48.606;13.456;2024-03-02T15:15:59;24.40;56.20
11214;DHT22;5664;48.606;13.456;2024-03-02T15:18:25;24.40;56.40
11214;DHT22;5664;48.606;13.456;2024-03-02T15:20:51;24.40;56.50
11214;DHT22;5664;48.606;13.456;2024-03-02T15:23:16;24.40;56.60
11214;DHT22;5664;48.606;13.456;2024-03-02T15:25:42;24.40;56.50
11214;DHT22;5664;48.606;13.456;2024-03-02T15:28:07;24.40;56.10
11214;DHT22;5664;48.606;13.456;2024-03-02T15:30:33;24.30;56.80
11214;DHT22;5664;48.606;13.456;2024-03-02T15:32:58;24.40;57.00